Flight Track Log - Related Links

Times and Time Zones

All times are in EDT time to prevent confusion due to time zone crossing. See the N68JV flight status page for this flight to view local times or setup timezone preferences in your user account.

Time Position Orientation Groundspeed Altitude Reporting Facility
EDT Latitude Longitude Course Direction KTS MPH feet Rate Location/Type
Wed 07:53:01 AM 42.9500 -87.9000 11° North 166 191 1,400  Level KMKE
Wed 07:53:23 AM 42.9656 -87.8958 11° North 153 176 2,300 3,542 Climbing Chicago Center
Wed 07:54:24 AM 42.9608 -87.9539 264° West 203 234 6,300 3,561 Climbing Chicago Center
Wed 07:55:26 AM 42.9264 -88.0094 230° Southwest 189 217 9,600 2,806 Climbing Chicago Center
Wed 07:56:28 AM 42.8783 -88.0719 224° Southwest 226 260 12,100 2,439 Climbing Chicago Center
Wed 07:57:29 AM 42.7978 -88.0667 177° South 282 325 14,600 2,390 Climbing Chicago Center
Wed 07:58:31 AM 42.7142 -88.0631 178° South 296 341 17,000 2,274 Climbing Chicago Center
Wed 07:59:33 AM 42.6267 -88.0586 178° South 309 356 19,300 2,468 Climbing Chicago Center
Wed 08:00:35 AM 42.5253 -88.0528 178° South 312 359 22,100 2,419 Climbing Chicago Center
Wed 08:01:37 AM 42.4375 -88.0489 178° South 314 361 24,300 1,887 Climbing Chicago Center
Wed 08:02:39 AM 42.3447 -88.0439 178° South 330 380 26,000 1,561 Climbing Chicago Center
Wed 08:03:40 AM 42.2583 -88.0367 176° South 340 391 27,500 1,610 Climbing Chicago Center
Wed 08:04:42 AM 42.1408 -88.0314 178° South 351 404 29,300 1,597 Climbing Chicago Center
Wed 08:05:44 AM 42.0403 -88.0264 178° South 362 417 30,800 1,452 Climbing Chicago Center
Wed 08:06:46 AM 41.9372 -88.0197 177° South 370 426 32,300 1,113 Climbing Chicago Center
Wed 08:07:48 AM 41.8347 -88.0303 184° South 371 427 33,100 726 Climbing Chicago Center
Wed 08:08:50 AM 41.7256 -88.0419 185° South 391 450 33,800 677 Climbing Chicago Center
Wed 08:09:52 AM 41.6128 -88.0542 185° South 407 468 34,500 871 Climbing Chicago Center
Wed 08:10:54 AM 41.4758 -88.0708 185° South 420 483 35,600 968 Climbing Chicago Center
Wed 08:11:56 AM 41.3608 -88.0836 185° South 416 479 36,500 919 Climbing Chicago Center
Wed 08:12:58 AM 41.2306 -88.0953 184° South 419 482 37,500 726 Climbing Chicago Center
Wed 08:14:00 AM 41.1169 -88.1072 185° South 413 475 38,000 242 Climbing Chicago Center
Wed 08:15:02 AM 40.9983 -88.1203 185° South 426 490 38,000  Level Chicago Center
Wed 08:16:04 AM 40.8889 -88.1733 200° South 424 488 38,000  Level Chicago Center
Wed 08:17:06 AM 40.7875 -88.2475 209° Southwest 418 481 38,000  Level Chicago Center
Wed 08:18:08 AM 40.6858 -88.3197 208° Southwest 418 481 38,000  Level Chicago Center
Wed 08:19:10 AM 40.5664 -88.4042 208° Southwest 408 470 38,000  Level Chicago Center
Wed 08:20:12 AM 40.4711 -88.4728 209° Southwest 396 456 38,000  Level Chicago Center
Wed 08:21:14 AM 40.3811 -88.5361 208° Southwest 391 450 38,000  Level Chicago Center
Wed 08:22:16 AM 40.2850 -88.6056 209° Southwest 394 453 38,000  Level Chicago Center
Wed 08:23:18 AM 40.1889 -88.6728 208° Southwest 391 450 38,000  Level Chicago Center
Wed 08:24:20 AM 40.0700 -88.7556 208° Southwest 399 459 38,000  Level Chicago Center
Wed 08:25:22 AM 39.9694 -88.8269 209° Southwest 406 467 38,000  Level Chicago Center
Wed 08:26:24 AM 39.8678 -88.8997 209° Southwest 414 476 38,000  Level Chicago Center
Wed 08:27:14 AM 39.7889 -88.9519 207° Southwest 406 467 38,000  Level Kansas City Center
Wed 08:28:15 AM 39.6892 -89.0222 208° Southwest 407 468 38,000  Level Kansas City Center
Wed 08:29:16 AM 39.5886 -89.0914 208° Southwest 407 468 38,000  Level Kansas City Center
Wed 08:30:18 AM 39.4878 -89.1617 208° Southwest 410 472 38,000  Level Kansas City Center
Wed 08:31:19 AM 39.3819 -89.2331 208° Southwest 406 467 38,000  Level Kansas City Center
Wed 08:32:20 AM 39.2819 -89.3028 208° Southwest 407 468 38,000  Level Kansas City Center
Wed 08:33:21 AM 39.1817 -89.3717 208° Southwest 409 471 38,000  Level Kansas City Center
Wed 08:34:22 AM 39.0656 -89.4536 209° Southwest 405 466 38,000  Level Kansas City Center
Wed 08:35:23 AM 38.9658 -89.5208 208° Southwest 405 466 38,000  Level Kansas City Center
Wed 08:36:25 AM 38.8653 -89.5892 208° Southwest 406 467 38,000  Level Kansas City Center
Wed 08:37:26 AM 38.7664 -89.6564 208° Southwest 403 464 38,000  Level Kansas City Center
Wed 08:38:27 AM 38.6589 -89.7267 207° Southwest 413 475 38,000  Level Kansas City Center
Wed 08:39:28 AM 38.5592 -89.7936 208° Southwest 409 471 38,000  Level Kansas City Center
Wed 08:40:29 AM 38.4581 -89.8611 208° Southwest 407 468 38,000  Level Kansas City Center
Wed 08:41:30 AM 38.3592 -89.9281 208° Southwest 404 465 38,000  Level Kansas City Center
Wed 08:42:32 AM 38.2603 -89.9953 208° Southwest 401 461 38,000  Level Kansas City Center
Wed 08:43:33 AM 38.1603 -90.0606 207° Southwest 401 461 38,000  Level Kansas City Center
Wed 08:44:34 AM 38.0617 -90.1275 208° Southwest 401 461 38,000  Level Kansas City Center
Wed 08:45:35 AM 37.9631 -90.1911 207° Southwest 397 457 38,000  Level Kansas City Center
Wed 08:46:36 AM 37.8636 -90.2567 207° Southwest 402 463 38,000  Level Kansas City Center
Wed 08:47:37 AM 37.7642 -90.3253 209° Southwest 406 467 38,000  Level Kansas City Center
Wed 08:48:39 AM 37.6661 -90.3892 207° Southwest 401 461 38,000  Level Kansas City Center
Wed 08:49:40 AM 37.5672 -90.4528 207° Southwest 399 459 38,000  Level Kansas City Center
Wed 08:50:41 AM 37.4675 -90.5167 207° Southwest 400 460 38,000  Level Kansas City Center
Wed 08:51:42 AM 37.3475 -90.5950 207° Southwest 403 464 38,000  Level Kansas City Center
Wed 08:52:43 AM 37.2561 -90.6553 208° Southwest 406 467 38,000  Level Kansas City Center
Wed 08:53:44 AM 37.1542 -90.7197 207° Southwest 409 471 38,000  Level Kansas City Center
Wed 08:54:45 AM 37.0536 -90.7839 207° Southwest 409 471 38,000 -246 Level Kansas City Center
Wed 08:55:46 AM 36.9322 -90.8619 207° Southwest 408 470 37,500 -1,033 Descending Kansas City Center
Wed 08:56:47 AM 36.8272 -90.9300 207° Southwest 416 479 35,900 -1,537 Descending Kansas City Center
Wed 08:57:08 AM 36.7972 -90.9556 214° Southwest 425 489 35,400 -1,829 Descending Memphis Center
Wed 08:58:09 AM 36.6883 -91.0219 206° Southwest 436 502 33,400 -2,000 Descending Memphis Center
Wed 08:59:08 AM 36.5797 -91.0908 207° Southwest 436 502 31,400 -2,067 Descending Memphis Center
Wed 09:00:08 AM 36.4731 -91.1569 206° Southwest 436 502 29,300 -2,100 Descending Memphis Center
Wed 09:01:08 AM 36.3661 -91.2228 206° Southwest 431 496 27,200 -2,050 Descending Memphis Center
Wed 09:02:08 AM 36.2572 -91.2914 207° Southwest 431 496 25,200 -2,050 Descending Memphis Center
Wed 09:03:08 AM 36.1442 -91.3594 206° Southwest 431 496 23,100 -2,100 Descending Memphis Center
Wed 09:04:08 AM 36.0353 -91.4272 207° Southwest 436 502 21,000 -1,900 Descending Memphis Center
Wed 09:05:08 AM 35.9347 -91.4903 207° Southwest 426 490 19,300 -1,650 Descending Memphis Center
Wed 09:06:08 AM 35.8297 -91.5553 207° Southwest 421 484 17,700 -1,550 Descending Memphis Center
Wed 09:07:08 AM 35.7289 -91.6178 207° Southwest 416 479 16,200 -1,550 Descending Memphis Center
Wed 09:08:08 AM 35.6283 -91.6800 207° Southwest 411 473 14,600 -1,600 Descending Memphis Center
Wed 09:09:08 AM 35.5336 -91.7425 208° Southwest 411 473 13,000 -1,670 Descending Memphis Center
Wed 09:09:45 AM 35.4667 -91.7819 206° Southwest 378 435 11,900 -1,600 Descending Memphis Center
Wed 09:10:08 AM 35.4414 -91.7944 202° Southwest 393 452 11,400 -1,475 Descending Memphis Center
Wed 09:10:46 AM 35.3719 -91.8389 208° Southwest 354 407 10,400 -1,300 Descending Memphis Center
Wed 09:11:08 AM 35.3531 -91.8464 198° South 370 426 10,100 -1,200 Descending Memphis Center
Wed 09:11:46 AM 35.3006 -91.8733 203° Southwest 272 313 9,200 -1,400 Descending Memphis Center
Wed 09:12:08 AM 35.2775 -91.8831 199° South 328 377 8,700 -1,574 Descending Memphis Center
Wed 09:12:47 AM 35.2231 -91.9128 204° Southwest 282 325 7,600 -1,600 Descending Memphis Center
Wed 09:13:08 AM 35.2061 -91.9200 199° South 299 344 7,100 -1,700 Descending Memphis Center
Wed 09:13:47 AM 35.1475 -91.9519 204° Southwest 280 322 5,900 -1,600 Descending Memphis Center
Wed 09:14:08 AM 35.1328 -91.9567 195° South 292 336 5,500 -885 Descending Memphis Center
Wed 09:14:48 AM 35.0783 -91.9733 194° South 273 314 5,000 -500 Descending Memphis Center
Wed 09:15:08 AM 35.0614 -91.9806 199° South 282 325 5,000  Level Memphis Center
Wed 09:15:49 AM 34.9967 -91.9922 188° South 284 327 5,000  Level Memphis Center
Wed 09:16:08 AM 34.9758 -91.9942 184° South 282 325 5,000  Level Memphis Center
Wed 09:16:49 AM 34.9236 -92.0058 190° South 277 319 5,000  Level Memphis Center
Wed 09:17:08 AM 34.9025 -92.0081 185° South 282 325 5,000  Level Memphis Center
Wed 09:17:50 AM 34.8461 -92.0169 187° South 266 306 5,000  Level Memphis Center
Wed 09:18:08 AM 34.8275 -92.0192 186° South 272 313 5,000  Level Memphis Center
Wed 09:18:51 AM 34.7750 -92.0308 190° South 265 305 5,000  Level Memphis Center
Wed 09:19:08 AM 34.7542 -92.0381 196° South 272 313 5,000 -600 Level Memphis Center
Wed 09:19:51 AM 34.7056 -92.0700 208° Southwest 242 278 4,400 -984 Descending Memphis Center
Wed 09:20:09 AM 34.6953 -92.0747 201° Southwest 264 304 4,000 -1,672 Descending Memphis Center
Wed 09:20:52 AM 34.6675 -92.1147 230° Southwest 217 250 2,700 -1,322 Descending Memphis Center
Wed 09:21:08 AM 34.6672 -92.1297 269° West 211 243 2,700 -600 Level Memphis Center
Wed 09:21:52 AM 34.6667 -92.1778 269° West 159 183 2,100 -800 Descending Memphis Center
Wed 09:22:08 AM 34.6686 -92.1878 283° West 179 206 1,900 -689 Descending Memphis Center
Wed 09:22:53 AM 34.6722 -92.2233 277° West 125 144 1,400 -700 Descending Memphis Center
Wed 09:23:08 AM 34.6761 -92.2308 302° West 151 174 1,200 -689 Descending Memphis Center
Wed 09:23:54 AM 34.7011 -92.2417 340° North 127 146 700 -652 Descending Memphis Center

Login

Don't have an account? Register now (free) for customized features, flight alerts, and more!